This is the latest recevied weather packets stored in our database for station/object XE1GMR. If no packets are shown the sender has not sent any weather packets the latest 10 day(s).
| Time | Temp. | Humidity | Pressure | Rain* | Wind** | Luminosity | Snow |
|---|---|---|---|---|---|---|---|
| 1778272718 | 29.44° C | 37% | 1118.1 hPa | 0 mm | - | 693 W/m² | - |
| 1778272414 | 29.44° C | 37% | 1118 hPa | 0 mm | - | 653 W/m² | - |
| 1778272110 | 29.44° C | 38% | 1118.3 hPa | 0 mm | - | 656 W/m² | - |
| 1778271808 | 28.89° C | 39% | 1118.2 hPa | 0 mm | - | 573 W/m² | - |
| 1778271505 | 28.33° C | 40% | 1118 hPa | 0 mm | - | 497 W/m² | - |
| 1778271202 | 28.33° C | 40% | 1118.4 hPa | 0 mm | - | 388 W/m² | - |
| 1778270893 | 28.89° C | 39% | 1118.1 hPa | 0 mm | - | 399 W/m² | - |
| 1778270590 | 28.89° C | 39% | 1118.3 hPa | 0 mm | - | 435 W/m² | - |
| 1778270286 | 28.89° C | 39% | 1118.5 hPa | 0 mm | - | 537 W/m² | - |
| 1778269982 | 29.44° C | 38% | 1118.6 hPa | 0 mm | - | 679 W/m² | - |
| 1778269679 | 29.44° C | 39% | 1118.6 hPa | 0 mm | - | 661 W/m² | - |
| 1778269376 | 30° C | 38% | 1118.9 hPa | 0 mm | - | 595 W/m² | - |
| 1778269073 | 30° C | 38% | 1118.9 hPa | 0 mm | - | 594 W/m² | - |
| 1778268770 | 30° C | 38% | 1118.6 hPa | 0 mm | - | 654 W/m² | - |
| 1778268466 | 30° C | 38% | 1119 hPa | 0 mm | - | 731 W/m² | - |
| 1778268163 | 30° C | 38% | 1118.9 hPa | 0 mm | - | 580 W/m² | - |
| 1778267860 | 30° C | 38% | 1119.2 hPa | 0 mm | - | 530 W/m² | - |
| 1778267557 | 29.44° C | 39% | 1119.2 hPa | 0 mm | - | 836 W/m² | - |
| 1778267255 | 29.44° C | 40% | 1119.2 hPa | 0 mm | - | 783 W/m² | - |
| 1778266950 | 29.44° C | 39% | 1119.1 hPa | 0 mm | - | 768 W/m² | - |
| 1778266647 | 29.44° C | 39% | 1119.3 hPa | 0 mm | - | 783 W/m² | - |
| 1778266345 | 28.89° C | 40% | 1119.3 hPa | 0 mm | - | 777 W/m² | - |
| 1778266042 | 28.33° C | 40% | 1119.4 hPa | 0 mm | - | 761 W/m² | - |
| 1778265739 | 29.44° C | 40% | 1119.6 hPa | 0 mm | - | 257 W/m² | - |
| 1778265436 | 27.78° C | 41% | 1119.4 hPa | 0 mm | - | 795 W/m² | - |
* Rain latest hour (hover to see other rain measurements)
** Current wind speed in m/s (hover to see current wind gust speed)